createdAt,value
2018-04-26T00:01:44.739Z,10.43
2018-04-26T00:04:12.124Z,12.33
2018-04-26T00:06:39.511Z,11.33
2018-04-26T00:09:06.907Z,11.00
2018-04-26T00:11:34.300Z,11.50
2018-04-26T00:14:01.691Z,11.27
2018-04-26T00:16:29.082Z,11.07
2018-04-26T00:18:56.735Z,11.93
2018-04-26T00:21:24.123Z,11.03
2018-04-26T00:23:51.510Z,11.33
2018-04-26T00:26:18.909Z,11.10
2018-04-26T00:28:46.295Z,15.47
2018-04-26T00:31:13.686Z,12.30
2018-04-26T00:33:41.071Z,13.87
2018-04-26T00:36:08.488Z,11.03
2018-04-26T00:38:35.880Z,11.33
2018-04-26T00:41:03.267Z,11.40
2018-04-26T00:43:30.663Z,11.57
2018-04-26T00:45:58.247Z,16.37
2018-04-26T00:48:25.647Z,11.63
2018-04-26T00:50:53.092Z,11.23
2018-04-26T00:53:20.483Z,15.00
2018-04-26T00:55:47.871Z,10.90
2018-04-26T00:58:15.267Z,11.10
2018-04-26T01:00:42.650Z,11.30
2018-04-26T01:03:10.045Z,12.03
2018-04-26T01:05:37.431Z,10.83
2018-04-26T01:08:04.827Z,14.60
2018-04-26T01:10:32.219Z,11.00
2018-04-26T01:12:59.602Z,11.47
2018-04-26T01:15:26.999Z,11.47
2018-04-26T01:17:54.382Z,12.07
2018-04-26T01:20:21.783Z,10.50
2018-04-26T01:22:49.167Z,14.00
2018-04-26T01:25:16.575Z,16.57
2018-04-26T01:27:43.962Z,17.53
2018-04-26T01:30:11.363Z,10.87
2018-04-26T01:32:38.744Z,12.20
2018-04-26T01:35:06.132Z,11.57
2018-04-26T01:37:45.392Z,10.90
2018-04-26T01:40:12.777Z,11.37
2018-04-26T01:42:40.171Z,11.97
2018-04-26T01:45:07.560Z,15.30
2018-04-26T01:47:35.337Z,11.97
2018-04-26T01:50:03.576Z,14.00
2018-04-26T01:52:30.968Z,12.70
2018-04-26T01:54:58.367Z,16.10
2018-04-26T01:57:25.755Z,15.70
2018-04-26T01:59:53.147Z,14.73
2018-04-26T02:02:20.535Z,14.87
2018-04-26T02:04:47.939Z,12.17
2018-04-26T02:07:15.329Z,14.03
2018-04-26T02:09:42.732Z,16.23
2018-04-26T02:12:10.122Z,18.57
2018-04-26T02:14:37.507Z,12.80
2018-04-26T02:17:04.908Z,16.33
2018-04-26T02:19:32.294Z,16.27
2018-04-26T02:21:59.683Z,20.33
2018-04-26T02:24:27.066Z,17.13
2018-04-26T02:26:54.463Z,14.70
2018-04-26T02:29:21.846Z,12.63
2018-04-26T02:31:49.337Z,15.13
2018-04-26T02:34:16.635Z,18.73
2018-04-26T02:36:44.015Z,13.00
2018-04-26T02:39:11.413Z,17.77
2018-04-26T02:41:38.791Z,17.47
2018-04-26T02:44:06.195Z,13.07
2018-04-26T02:46:33.571Z,16.53
2018-04-26T02:49:00.963Z,12.60
2018-04-26T02:51:28.362Z,15.87
2018-04-26T02:53:55.748Z,11.47
2018-04-26T02:56:23.139Z,12.77
2018-04-26T02:58:50.531Z,12.13
2018-04-26T03:01:17.924Z,18.43
2018-04-26T03:03:45.323Z,11.93
2018-04-26T03:06:12.713Z,11.80
2018-04-26T03:08:40.095Z,13.97
2018-04-26T03:11:07.483Z,11.50
2018-04-26T03:13:34.867Z,15.00
2018-04-26T03:16:02.267Z,31.23
2018-04-26T03:18:29.646Z,13.73
2018-04-26T03:20:57.039Z,18.33
2018-04-26T03:23:24.428Z,12.63
2018-04-26T03:25:51.817Z,17.77
2018-04-26T03:28:19.218Z,11.50
2018-04-26T03:30:46.607Z,15.77
2018-04-26T03:33:14.000Z,13.73
2018-04-26T03:35:41.398Z,16.83
2018-04-26T03:38:08.787Z,14.53
2018-04-26T03:40:36.179Z,12.50
2018-04-26T03:43:03.568Z,15.27
2018-04-26T03:45:30.958Z,13.37
2018-04-26T03:47:58.342Z,14.20
2018-04-26T03:50:25.726Z,12.07
2018-04-26T03:52:53.119Z,16.00
2018-04-26T03:55:20.718Z,16.63
2018-04-26T03:57:48.115Z,11.63
2018-04-26T04:00:27.232Z,14.63
2018-04-26T04:03:06.504Z,16.90
2018-04-26T04:05:45.786Z,15.23
2018-04-26T04:08:13.167Z,12.93
2018-04-26T04:10:40.559Z,12.73
2018-04-26T04:13:07.988Z,16.63
2018-04-26T04:15:35.367Z,14.33
2018-04-26T04:18:02.755Z,12.53
2018-04-26T04:20:30.146Z,15.00
2018-04-26T04:22:57.715Z,15.60
2018-04-26T04:25:25.158Z,16.80
2018-04-26T04:27:52.557Z,18.37
2018-04-26T04:30:19.943Z,16.00
2018-04-26T04:32:47.327Z,16.43
2018-04-26T04:35:14.747Z,10.70
2018-04-26T04:37:42.103Z,15.80
2018-04-26T04:40:09.491Z,18.57
2018-04-26T04:42:36.871Z,12.03
2018-04-26T04:45:04.423Z,16.10
2018-04-26T04:47:31.823Z,17.63
2018-04-26T04:49:59.262Z,15.33
2018-04-26T04:52:26.647Z,18.90
2018-04-26T04:54:54.051Z,10.43
2018-04-26T04:57:21.430Z,12.17
2018-04-26T04:59:48.817Z,12.03
2018-04-26T05:02:16.199Z,10.37
2018-04-26T05:04:43.583Z,16.20
2018-04-26T05:07:10.966Z,14.53
2018-04-26T05:09:38.370Z,18.17
2018-04-26T05:12:05.764Z,10.37
2018-04-26T05:14:33.141Z,9.87
2018-04-26T05:17:00.527Z,10.53
2018-04-26T05:19:27.916Z,11.47
2018-04-26T05:21:55.306Z,12.73
2018-04-26T05:24:22.691Z,12.77
2018-04-26T05:26:50.074Z,11.13
2018-04-26T05:29:17.575Z,13.63
2018-04-26T05:31:44.918Z,19.37
2018-04-26T05:34:12.302Z,12.77
2018-04-26T05:36:39.684Z,11.67
2018-04-26T05:39:07.118Z,17.93
2018-04-26T05:41:34.511Z,17.47
2018-04-26T05:44:01.921Z,13.57
2018-04-26T05:46:29.303Z,15.57
2018-04-26T05:48:56.698Z,16.60
2018-04-26T05:51:24.151Z,15.90
2018-04-26T05:53:51.516Z,16.03
2018-04-26T05:56:19.020Z,17.57
2018-04-26T05:58:46.421Z,19.10
2018-04-26T06:01:13.815Z,19.00
2018-04-26T06:03:41.234Z,16.20
2018-04-26T06:06:08.612Z,14.83
2018-04-26T06:08:35.995Z,19.07
2018-04-26T06:11:03.391Z,13.50
2018-04-26T06:13:30.775Z,14.43
2018-04-26T06:15:58.171Z,15.43
2018-04-26T06:18:25.554Z,14.97
2018-04-26T06:20:52.943Z,17.50
2018-04-26T06:23:20.335Z,20.70
2018-04-26T06:25:47.723Z,19.70
2018-04-26T06:28:15.111Z,16.10
2018-04-26T06:30:42.616Z,17.43
2018-04-26T06:33:10.007Z,16.90
2018-04-26T06:35:37.391Z,16.37
2018-04-26T06:38:04.783Z,17.73
2018-04-26T06:40:32.167Z,13.47
2018-04-26T06:42:59.556Z,17.80
2018-04-26T06:45:26.948Z,19.30
2018-04-26T06:47:54.348Z,20.07
2018-04-26T06:50:21.728Z,18.13
2018-04-26T06:52:49.115Z,25.20
2018-04-26T06:55:16.506Z,17.43
2018-04-26T06:57:43.899Z,20.73
2018-04-26T07:00:11.290Z,18.73
2018-04-26T07:02:38.673Z,20.00
2018-04-26T07:05:06.062Z,17.90
2018-04-26T07:07:33.443Z,15.57
2018-04-26T07:10:01.116Z,22.43
2018-04-26T07:12:28.503Z,18.03
2018-04-26T07:14:56.034Z,16.27
2018-04-26T07:17:23.423Z,16.47
2018-04-26T07:19:50.815Z,17.10
2018-04-26T07:22:18.198Z,19.70
2018-04-26T07:24:45.586Z,17.13
2018-04-26T07:27:12.989Z,20.90
2018-04-26T07:29:40.374Z,20.17
2018-04-26T07:32:07.762Z,16.80
2018-04-26T07:34:35.211Z,20.23
2018-04-26T07:37:02.604Z,21.10
2018-04-26T07:39:30.195Z,16.00
2018-04-26T07:41:58.108Z,19.37
2018-04-26T07:44:25.446Z,19.87
2018-04-26T07:46:52.841Z,15.13
2018-04-26T07:49:20.231Z,19.67
2018-04-26T07:51:47.624Z,17.13
2018-04-26T07:54:15.007Z,19.63
2018-04-26T07:56:42.407Z,18.40
2018-04-26T07:59:09.794Z,18.30
2018-04-26T08:01:37.224Z,17.17
2018-04-26T08:04:04.579Z,22.07
2018-04-26T08:06:31.972Z,22.60
2018-04-26T08:08:59.359Z,19.17
2018-04-26T08:11:26.748Z,20.17
2018-04-26T08:13:54.147Z,15.50
2018-04-26T08:16:21.530Z,16.50
2018-04-26T08:18:48.947Z,20.00
2018-04-26T08:21:16.349Z,12.90
2018-04-26T08:23:43.726Z,21.13
2018-04-26T08:26:11.118Z,24.30
2018-04-26T08:28:38.521Z,12.30
2018-04-26T08:31:05.913Z,14.07
2018-04-26T08:33:33.303Z,18.03
2018-04-26T08:36:00.700Z,15.13
2018-04-26T08:38:28.083Z,15.83
2018-04-26T08:40:55.479Z,16.83
2018-04-26T08:43:22.866Z,16.73
2018-04-26T08:45:50.258Z,13.87
2018-04-26T08:48:17.652Z,13.93
2018-04-26T08:50:45.036Z,14.43
2018-04-26T08:53:12.463Z,17.57
2018-04-26T08:55:39.835Z,13.57
2018-04-26T08:58:07.222Z,14.03
2018-04-26T09:00:34.615Z,17.77
2018-04-26T09:03:02.013Z,15.30
2018-04-26T09:05:29.408Z,17.70
2018-04-26T09:07:56.812Z,18.00
2018-04-26T09:10:24.191Z,13.70
2018-04-26T09:12:51.630Z,14.43
2018-04-26T09:15:19.022Z,14.57
2018-04-26T09:17:46.458Z,13.53
2018-04-26T09:20:13.852Z,14.40
2018-04-26T09:22:41.234Z,11.30
2018-04-26T09:25:08.641Z,15.10
2018-04-26T09:27:36.082Z,16.77
2018-04-26T09:30:03.560Z,12.43
2018-04-26T09:32:30.883Z,12.10
2018-04-26T09:34:58.283Z,16.87
2018-04-26T09:37:25.667Z,18.00
2018-04-26T09:39:53.064Z,13.67
2018-04-26T09:42:20.447Z,11.83
2018-04-26T09:44:47.843Z,13.00
2018-04-26T09:47:15.240Z,12.07
2018-04-26T09:49:42.645Z,13.33
2018-04-26T09:52:10.017Z,14.30
2018-04-26T09:54:37.412Z,13.10
2018-04-26T09:57:04.801Z,14.73
2018-04-26T09:59:32.191Z,12.27
2018-04-26T10:02:02.518Z,12.67
2018-04-26T10:07:24.370Z,12.10
2018-04-26T10:09:51.750Z,11.40
2018-04-26T10:12:19.175Z,11.00
2018-04-26T10:14:46.564Z,11.10
2018-04-26T10:17:13.958Z,11.47
2018-04-26T10:19:41.344Z,17.10
2018-04-26T10:22:08.761Z,11.53
2018-04-26T10:24:36.135Z,10.80
2018-04-26T10:27:03.523Z,11.60
2018-04-26T10:29:30.907Z,10.40
2018-04-26T10:31:58.912Z,11.27
2018-04-26T10:34:26.283Z,13.63
2018-04-26T10:36:53.666Z,12.73
2018-04-26T10:39:21.058Z,10.63
2018-04-26T10:41:48.451Z,10.70
2018-04-26T10:44:15.841Z,11.03
2018-04-26T10:46:43.234Z,11.63
2018-04-26T10:49:10.630Z,10.23
2018-04-26T10:51:38.011Z,11.90
2018-04-26T10:54:05.442Z,10.40
2018-04-26T10:56:32.824Z,10.70
2018-04-26T10:59:00.209Z,14.43
2018-04-26T11:01:27.615Z,15.90
2018-04-26T11:03:54.992Z,12.87
2018-04-26T11:06:22.371Z,15.87
2018-04-26T11:08:49.751Z,15.27
2018-04-26T11:11:17.221Z,11.07
2018-04-26T11:13:44.522Z,13.03
2018-04-26T11:16:11.932Z,11.93
2018-04-26T11:18:39.307Z,10.33
2018-04-26T11:21:06.699Z,10.77
2018-04-26T11:23:34.082Z,11.63
2018-04-26T11:26:01.483Z,8.43
2018-04-26T11:28:28.881Z,17.60
2018-04-26T11:30:56.277Z,14.03
2018-04-26T11:33:23.658Z,11.07
2018-04-26T11:35:51.047Z,12.40
2018-04-26T11:38:18.430Z,9.57
2018-04-26T11:40:45.815Z,8.60
2018-04-26T11:43:13.212Z,8.90
2018-04-26T11:45:40.587Z,8.57
2018-04-26T11:48:07.966Z,8.50
2018-04-26T11:50:35.342Z,8.97
2018-04-26T11:53:02.727Z,9.70
2018-04-26T11:55:30.107Z,12.50
2018-04-26T11:57:57.499Z,12.17
2018-04-26T12:00:24.903Z,12.43
2018-04-26T12:02:52.293Z,8.70
2018-04-26T12:05:19.674Z,11.33
2018-04-26T12:07:47.147Z,13.03
2018-04-26T12:10:14.463Z,10.27
2018-04-26T12:12:41.842Z,11.17
2018-04-26T12:15:09.222Z,11.33
2018-04-26T12:17:36.654Z,11.60
2018-04-26T12:20:04.051Z,10.53
2018-04-26T12:22:31.431Z,12.60
2018-04-26T12:24:58.819Z,10.27
2018-04-26T12:27:26.225Z,14.10
2018-04-26T12:29:53.603Z,14.20
2018-04-26T12:32:20.987Z,9.90
2018-04-26T12:34:48.384Z,10.03
2018-04-26T12:37:15.767Z,10.20
2018-04-26T12:39:43.160Z,9.57
2018-04-26T12:42:10.556Z,9.93
2018-04-26T12:44:37.917Z,10.53
2018-04-26T12:47:05.308Z,11.63
2018-04-26T12:49:32.799Z,11.10
2018-04-26T12:52:01.038Z,11.93
2018-04-26T12:54:28.415Z,10.67
2018-04-26T12:56:55.808Z,9.40
2018-04-26T12:59:23.302Z,9.47
2018-04-26T13:01:50.695Z,10.20
2018-04-26T13:04:18.086Z,11.27
2018-04-26T13:06:45.483Z,9.30
2018-04-26T13:09:12.879Z,12.70
2018-04-26T13:11:40.303Z,9.90
2018-04-26T13:14:07.679Z,9.30
2018-04-26T13:16:35.087Z,10.10
2018-04-26T13:19:02.506Z,9.13
2018-04-26T13:21:29.903Z,10.70
2018-04-26T13:23:57.276Z,10.70
2018-04-26T13:26:24.667Z,10.30
2018-04-26T13:28:52.050Z,9.90
2018-04-26T13:31:19.451Z,11.40
2018-04-26T13:33:46.842Z,9.80
2018-04-26T13:36:14.381Z,9.87
2018-04-26T13:38:41.747Z,10.63
2018-04-26T13:41:09.134Z,11.63
2018-04-26T13:43:36.535Z,11.53
2018-04-26T13:46:03.954Z,12.00
2018-04-26T13:48:31.330Z,12.10
2018-04-26T13:50:58.727Z,11.67
2018-04-26T13:53:26.364Z,10.67
2018-04-26T13:55:53.770Z,11.10
2018-04-26T13:58:21.176Z,12.00
2018-04-26T14:00:48.872Z,11.80
2018-04-26T14:03:16.255Z,12.67
2018-04-26T14:05:43.667Z,14.63
2018-04-26T14:08:11.094Z,11.83
2018-04-26T14:10:38.495Z,11.30
2018-04-26T14:13:05.911Z,13.03
2018-04-26T14:15:33.294Z,12.07
2018-04-26T14:18:00.681Z,12.57
2018-04-26T14:20:28.074Z,11.93
2018-04-26T14:22:55.521Z,11.73
2018-04-26T14:25:22.915Z,11.00
2018-04-26T14:27:51.576Z,13.43
2018-04-26T14:30:18.991Z,10.27
2018-04-26T14:32:46.399Z,11.27
2018-04-26T14:35:13.774Z,12.80
2018-04-26T14:37:41.221Z,10.47
2018-04-26T14:40:08.569Z,11.00
2018-04-26T14:42:35.947Z,10.63
2018-04-26T14:45:03.331Z,10.23
2018-04-26T14:47:30.727Z,10.27
2018-04-26T14:49:58.187Z,9.60
2018-04-26T14:52:25.849Z,9.63
2018-04-26T14:54:53.222Z,9.87
2018-04-26T14:57:20.722Z,10.07
2018-04-26T14:59:48.114Z,9.93
2018-04-26T15:02:15.535Z,9.90
2018-04-26T15:04:42.947Z,9.90
2018-04-26T15:07:10.375Z,10.30
2018-04-26T15:09:37.767Z,10.03
2018-04-26T15:12:05.149Z,10.13
2018-04-26T15:14:32.663Z,10.13
2018-04-26T15:17:00.067Z,9.67
2018-04-26T15:19:27.438Z,10.00
2018-04-26T15:21:54.822Z,10.47
2018-04-26T15:24:22.227Z,10.80
2018-04-26T15:26:49.631Z,10.87
2018-04-26T15:29:17.019Z,10.10
2018-04-26T15:31:44.408Z,11.67
2018-04-26T15:34:11.807Z,11.53
2018-04-26T15:36:39.195Z,12.53
2018-04-26T15:39:06.596Z,14.20
2018-04-26T15:41:34.036Z,14.93
2018-04-26T15:44:01.429Z,11.60
2018-04-26T15:46:28.867Z,11.03
2018-04-26T15:48:56.256Z,12.40
2018-04-26T15:51:23.690Z,11.13
2018-04-26T15:54:02.583Z,11.53
2018-04-26T15:56:54.363Z,11.33
2018-04-26T15:59:33.565Z,11.23
2018-04-26T16:05:27.343Z,10.20
2018-04-26T16:08:12.267Z,11.63
2018-04-26T16:10:57.233Z,10.60
2018-04-26T16:13:42.184Z,11.23
2018-04-26T16:16:27.122Z,10.20
2018-04-26T16:22:39.284Z,10.90
2018-04-26T16:25:18.494Z,11.30
2018-04-26T16:27:57.663Z,12.03
2018-04-26T16:30:36.814Z,11.50
2018-04-26T16:33:16.011Z,16.53
2018-04-26T16:35:48.985Z,11.57
2018-04-26T16:38:28.131Z,10.93
2018-04-26T16:40:55.529Z,10.50
2018-04-26T16:43:22.911Z,10.70
2018-04-26T16:45:50.291Z,9.20
2018-04-26T16:48:17.668Z,9.23
2018-04-26T16:50:45.128Z,9.87
2018-04-26T16:53:12.505Z,9.13
2018-04-26T16:55:39.996Z,8.63
2018-04-26T16:58:07.370Z,9.27
2018-04-26T17:00:34.760Z,9.77
2018-04-26T17:03:02.185Z,9.10
2018-04-26T17:05:29.568Z,10.20
2018-04-26T17:07:56.951Z,10.40
2018-04-26T17:10:24.338Z,11.57
2018-04-26T17:12:51.722Z,10.83
2018-04-26T17:15:19.176Z,10.47
2018-04-26T17:17:46.551Z,10.63
2018-04-26T17:20:13.957Z,10.53
2018-04-26T17:22:41.344Z,10.40
2018-04-26T17:25:08.733Z,9.80
2018-04-26T17:27:36.135Z,10.50
2018-04-26T17:30:03.536Z,11.47
2018-04-26T17:32:30.910Z,10.93
2018-04-26T17:34:58.458Z,11.80
2018-04-26T17:37:25.848Z,10.17
2018-04-26T17:39:53.229Z,10.80
2018-04-26T17:42:20.671Z,9.90
2018-04-26T17:44:47.992Z,10.40
2018-04-26T17:47:15.371Z,9.63
2018-04-26T17:49:42.830Z,8.90
2018-04-26T17:52:10.224Z,9.40
2018-04-26T17:54:37.615Z,8.80
2018-04-26T17:57:04.983Z,9.77
2018-04-26T17:59:32.366Z,9.67
2018-04-26T18:01:59.751Z,9.47
2018-04-26T18:04:27.146Z,8.90
2018-04-26T18:06:54.526Z,9.20
2018-04-26T18:09:21.936Z,10.20
2018-04-26T18:11:49.310Z,9.90
2018-04-26T18:14:16.722Z,9.80
2018-04-26T18:16:44.138Z,9.33
2018-04-26T18:19:11.532Z,10.90
2018-04-26T18:21:38.919Z,10.73
2018-04-26T18:24:06.306Z,10.07
2018-04-26T18:26:33.690Z,9.67
2018-04-26T18:29:01.074Z,10.13
2018-04-26T18:31:28.470Z,11.13
2018-04-26T18:33:56.041Z,11.33
2018-04-26T18:36:23.427Z,10.57
2018-04-26T18:38:50.895Z,10.33
2018-04-26T18:41:18.276Z,9.93
2018-04-26T18:43:45.827Z,9.37
2018-04-26T18:46:13.216Z,10.87
2018-04-26T18:48:40.635Z,10.67
2018-04-26T18:51:08.053Z,10.30
2018-04-26T18:53:35.430Z,11.13
2018-04-26T18:56:02.875Z,11.67
2018-04-26T18:58:30.271Z,11.80
2018-04-26T19:00:57.657Z,10.53
2018-04-26T19:03:25.044Z,11.43
2018-04-26T19:05:52.426Z,10.83
2018-04-26T19:08:19.811Z,11.03
2018-04-26T19:10:47.216Z,10.30
2018-04-26T19:13:14.596Z,10.20
2018-04-26T19:15:42.020Z,11.27
2018-04-26T19:18:09.375Z,10.43
2018-04-26T19:20:36.819Z,11.13
2018-04-26T19:23:04.209Z,11.30
2018-04-26T19:25:31.591Z,10.60
2018-04-26T19:27:58.987Z,10.70
2018-04-26T19:30:26.371Z,11.50
2018-04-26T19:32:53.768Z,11.60
2018-04-26T19:35:21.155Z,12.60
2018-04-26T19:37:48.543Z,11.17
2018-04-26T19:40:15.939Z,11.67
2018-04-26T19:42:43.339Z,11.93
2018-04-26T19:45:10.733Z,10.93
2018-04-26T19:47:38.112Z,11.67
2018-04-26T19:50:05.508Z,10.90
2018-04-26T19:52:32.895Z,10.97
2018-04-26T19:55:00.287Z,10.70
2018-04-26T19:57:27.671Z,11.60
2018-04-26T19:59:55.062Z,11.23
2018-04-26T20:02:22.444Z,12.03
2018-04-26T20:04:50.131Z,11.97
2018-04-26T20:07:17.514Z,12.63
2018-04-26T20:09:44.899Z,10.80
2018-04-26T20:12:12.292Z,11.60
2018-04-26T20:14:39.686Z,11.30
2018-04-26T20:17:07.107Z,11.17
2018-04-26T20:19:34.472Z,11.63
2018-04-26T20:22:01.863Z,11.97
2018-04-26T20:24:29.256Z,12.00
2018-04-26T20:26:57.042Z,11.73
2018-04-26T20:29:24.419Z,12.07
2018-04-26T20:31:51.807Z,13.00
2018-04-26T20:34:19.203Z,15.03
2018-04-26T20:36:46.591Z,19.30
2018-04-26T20:39:13.983Z,23.50
2018-04-26T20:41:53.111Z,35.50
2018-04-26T20:44:32.290Z,63.97
2018-04-26T20:46:59.679Z,62.73
2018-04-26T20:49:27.067Z,43.67
2018-04-26T20:51:54.460Z,27.87
2018-04-26T20:54:21.852Z,16.40
2018-04-26T20:56:49.295Z,12.83
2018-04-26T20:59:16.658Z,12.67
2018-04-26T21:01:44.055Z,12.90
2018-04-26T21:04:11.450Z,13.07
2018-04-26T21:06:38.838Z,13.93
2018-04-26T21:09:06.227Z,12.10
2018-04-26T21:11:33.618Z,12.50
2018-04-26T21:14:01.106Z,12.63
2018-04-26T21:16:28.403Z,12.40
2018-04-26T21:18:55.803Z,12.97
2018-04-26T21:21:23.175Z,12.63
2018-04-26T21:23:50.575Z,12.43
2018-04-26T21:26:17.953Z,12.77
2018-04-26T21:28:45.355Z,13.23
2018-04-26T21:31:12.737Z,13.70
2018-04-26T21:33:40.135Z,13.40
2018-04-26T21:36:07.587Z,12.37
2018-04-26T21:38:35.082Z,14.23
2018-04-26T21:41:02.567Z,13.00
2018-04-26T21:43:29.868Z,12.07
2018-04-26T21:45:57.251Z,12.40
2018-04-26T21:48:24.631Z,13.20
2018-04-26T21:50:57.519Z,12.00
2018-04-26T21:53:30.382Z,12.50
2018-04-26T21:56:03.380Z,13.40
2018-04-26T21:58:36.315Z,12.40
2018-04-26T22:01:09.352Z,11.60
2018-04-26T22:03:38.530Z,12.93
2018-04-26T22:06:06.036Z,12.63
2018-04-26T22:08:33.435Z,11.40
2018-04-26T22:11:00.825Z,12.40
2018-04-26T22:13:28.211Z,12.27
2018-04-26T22:15:55.604Z,13.00
2018-04-26T22:18:22.988Z,11.70
2018-04-26T22:20:50.376Z,12.73
2018-04-26T22:23:17.763Z,12.50
2018-04-26T22:25:46.042Z,13.87
2018-04-26T22:28:13.431Z,11.87
2018-04-26T22:30:40.817Z,12.77
2018-04-26T22:33:08.483Z,12.00
2018-04-26T22:35:35.867Z,13.77
2018-04-26T22:38:03.247Z,12.97
2018-04-26T22:40:30.639Z,12.70
2018-04-26T22:42:58.019Z,12.90
2018-04-26T22:45:25.427Z,12.80
2018-04-26T22:47:52.806Z,13.60
2018-04-26T22:50:20.198Z,12.90
2018-04-26T22:52:47.665Z,13.57
2018-04-26T22:55:15.039Z,13.47
2018-04-26T22:57:42.425Z,12.83
2018-04-26T23:00:09.880Z,13.50
2018-04-26T23:02:37.263Z,13.23
2018-04-26T23:05:04.651Z,12.80
2018-04-26T23:07:32.039Z,13.00
2018-04-26T23:09:59.422Z,13.47
2018-04-26T23:12:26.807Z,13.33
2018-04-26T23:14:54.190Z,12.70
2018-04-26T23:17:21.588Z,14.73
2018-04-26T23:19:48.988Z,13.73
2018-04-26T23:22:16.367Z,14.03
2018-04-26T23:24:43.745Z,13.53
2018-04-26T23:27:11.147Z,13.03
2018-04-26T23:29:38.569Z,14.10
2018-04-26T23:32:05.951Z,13.30
2018-04-26T23:34:33.347Z,13.40
2018-04-26T23:37:00.783Z,13.17
2018-04-26T23:39:28.163Z,14.30
2018-04-26T23:41:55.637Z,13.87
2018-04-26T23:44:23.022Z,12.80
2018-04-26T23:46:50.411Z,13.23
2018-04-26T23:49:17.815Z,13.23
2018-04-26T23:51:45.203Z,14.63
2018-04-26T23:54:12.590Z,13.30
2018-04-26T23:56:39.974Z,13.87
2018-04-26T23:59:07.363Z,13.17
